Time;durP1;ratioP1;P1;durP2;ratioP2;P2;SDS_P1;SDS_P2;PMS_P1;PMS_P2;Temp;Humidity;BMP_temperature;BMP_pressure;BME280_temperature;BME280_humidity;BME280_pressure;Samples;Min_cycle;Max_cycle;Signal;HPM_P1;HPM_P2
2022/10/21 00:02:22;;;;;;;12.45;5.20;;;15.20;99.90;;;;;;5028729;28;20038;-67
2022/10/21 00:04:47;;;;;;;9.98;3.60;;;15.20;99.90;;;;;;5029103;28;20034;-67
2022/10/21 00:07:13;;;;;;;10.80;4.25;;;15.20;99.90;;;;;;5013384;28;20118;-67
2022/10/21 00:09:39;;;;;;;16.13;5.68;;;15.10;99.90;;;;;;5013521;28;20084;-67
2022/10/21 00:12:04;;;;;;;11.63;4.07;;;15.00;99.90;;;;;;5013486;28;20026;-67
2022/10/21 00:14:30;;;;;;;10.00;4.93;;;15.00;99.90;;;;;;5013136;28;20099;-67
2022/10/21 00:16:58;;;;;;;9.40;4.72;;;15.00;99.90;;;;;;5028506;28;20037;-67
2022/10/21 00:19:24;;;;;;;14.95;5.55;;;14.90;99.90;;;;;;5028563;28;20510;-67
2022/10/21 00:21:49;;;;;;;9.07;4.32;;;14.80;99.90;;;;;;5013083;28;20053;-67
2022/10/21 00:24:15;;;;;;;16.75;4.75;;;14.70;99.90;;;;;;5013144;28;20037;-67
2022/10/21 00:26:41;;;;;;;9.30;4.93;;;14.70;99.90;;;;;;5028246;28;20429;-67
2022/10/21 00:29:06;;;;;;;10.25;5.18;;;14.70;99.90;;;;;;5012959;28;20022;-67
2022/10/21 00:31:33;;;;;;;10.13;5.05;;;14.60;99.90;;;;;;5011957;28;20056;-67
2022/10/21 00:33:59;;;;;;;19.58;5.88;;;14.60;99.90;;;;;;5012976;28;20058;-67
2022/10/21 00:36:25;;;;;;;7.57;4.60;;;14.60;99.90;;;;;;5028355;28;20054;-68
2022/10/21 00:38:51;;;;;;;10.98;5.03;;;14.60;99.90;;;;;;5011630;28;20060;-67
2022/10/21 00:41:19;;;;;;;18.27;7.30;;;14.60;99.90;;;;;;5028188;28;20482;-68
2022/10/21 00:44:10;;;;;;;8.68;4.60;;;14.70;99.90;;;;;;5027879;28;20034;-67
2022/10/21 00:46:39;;;;;;;10.80;5.63;;;14.70;99.90;;;;;;5027559;28;20065;-68
2022/10/21 00:49:22;;;;;;;17.63;5.68;;;14.70;99.90;;;;;;5012891;28;20108;-68
2022/10/21 00:51:52;;;;;;;13.35;5.93;;;14.70;99.90;;;;;;5012812;28;20572;-67
2022/10/21 00:54:20;;;;;;;20.37;6.67;;;14.70;99.90;;;;;;5027550;28;20509;-68
2022/10/21 00:56:48;;;;;;;26.63;6.43;;;14.60;99.90;;;;;;5012703;28;20486;-67
2022/10/21 00:59:15;;;;;;;14.43;5.75;;;14.70;99.90;;;;;;5027811;28;20049;-68
2022/10/21 01:01:42;;;;;;;13.38;5.75;;;14.60;99.90;;;;;;5027665;28;20054;-68
2022/10/21 01:04:07;;;;;;;14.20;5.63;;;14.60;99.90;;;;;;5010715;28;20466;-68
2022/10/21 01:06:35;;;;;;;11.77;5.65;;;14.60;99.90;;;;;;5013934;28;20029;-68
2022/10/21 01:09:01;;;;;;;14.55;6.45;;;14.60;99.90;;;;;;5025096;28;20033;-68
2022/10/21 01:11:28;;;;;;;15.30;6.50;;;14.60;99.90;;;;;;5004106;28;20393;-68
2022/10/21 01:14:31;;;;;;;20.70;6.55;;;14.70;99.90;;;;;;5030546;28;20026;-68
2022/10/21 01:17:41;;;;;;;21.67;6.45;;;14.60;99.90;;;;;;5005632;28;20030;-68
2022/10/21 01:21:09;;;;;;;14.98;5.90;;;14.60;99.90;;;;;;4991403;28;20045;-68
2022/10/21 01:24:03;;;;;;;18.33;6.78;;;14.60;99.90;;;;;;5000087;28;20583;-68
2022/10/21 01:26:54;;;;;;;17.23;6.25;;;14.60;99.90;;;;;;5016105;28;20446;-68
2022/10/21 01:30:13;;;;;;;11.83;5.90;;;14.60;99.90;;;;;;5032022;28;20037;-68
2022/10/21 01:33:10;;;;;;;13.35;5.25;;;14.50;99.90;;;;;;5031266;28;20326;-68
2022/10/21 01:36:08;;;;;;;17.65;5.13;;;14.50;99.90;;;;;;5031574;28;20148;-68
2022/10/21 01:39:01;;;;;;;13.63;5.65;;;14.50;99.90;;;;;;5030633;28;20133;-68
2022/10/21 01:41:52;;;;;;;12.50;4.78;;;14.50;99.90;;;;;;5014698;28;20490;-68
2022/10/21 01:44:48;;;;;;;10.45;6.15;;;14.40;99.90;;;;;;4975243;28;20038;-68
2022/10/21 01:47:26;;;;;;;13.00;5.10;;;14.30;99.90;;;;;;4976988;28;20524;-68
2022/10/21 01:50:03;;;;;;;11.88;5.07;;;14.30;99.90;;;;;;4991089;28;20042;-68
2022/10/21 01:52:29;;;;;;;20.00;6.00;;;14.30;99.90;;;;;;4991857;28;20022;-68
2022/10/21 01:55:05;;;;;;;14.85;6.97;;;14.30;99.90;;;;;;5007189;28;20062;-68
2022/10/21 01:57:40;;;;;;;11.43;5.00;;;14.30;99.90;;;;;;4991996;28;20782;-68
2022/10/21 02:00:07;;;;;;;11.93;5.82;;;14.20;99.90;;;;;;4990811;28;20084;-68
2022/10/21 02:02:38;;;;;;;14.18;6.32;;;14.20;99.90;;;;;;4990033;28;20441;-68
2022/10/21 02:05:15;;;;;;;;;;;14.20;99.90;;;;;;4991420;28;20034;-67
2022/10/21 02:07:41;;;;;;;15.27;4.70;;;14.20;99.90;;;;;;5006162;28;19972;-68
2022/10/21 02:10:07;;;;;;;13.75;5.53;;;14.20;99.90;;;;;;4990524;28;20030;-68
2022/10/21 02:12:35;;;;;;;13.45;6.13;;;14.20;99.90;;;;;;5006035;28;20418;-68
2022/10/21 02:15:05;;;;;;;12.07;6.28;;;14.20;99.90;;;;;;5006839;28;20455;-68
2022/10/21 02:17:33;;;;;;;17.27;7.10;;;14.20;99.90;;;;;;4990430;28;20088;-68
2022/10/21 02:20:01;;;;;;;14.23;6.45;;;14.20;99.90;;;;;;4990369;28;20031;-68
2022/10/21 02:22:28;;;;;;;12.82;6.45;;;14.20;99.90;;;;;;4991436;28;20176;-68
2022/10/21 02:25:18;;;;;;;14.20;5.25;;;14.20;99.90;;;;;;4990702;28;20038;-68
2022/10/21 02:27:45;;;;;;;10.65;4.70;;;14.10;99.90;;;;;;4975196;28;20451;-68
2022/10/21 02:30:11;;;;;;;15.05;6.07;;;14.10;99.90;;;;;;4991657;28;20113;-68
2022/10/21 02:32:55;;;;;;;13.40;8.07;;;14.10;99.90;;;;;;5007973;23;20089;-67
2022/10/21 02:35:58;;;;;;;18.10;6.15;;;14.10;99.90;;;;;;5020778;28;20065;-66
2022/10/21 02:38:31;;;;;;;13.50;6.40;;;14.10;99.90;;;;;;5010037;28;20422;-67
2022/10/21 02:41:09;;;;;;;13.63;6.60;;;14.10;99.90;;;;;;4994152;28;20441;-67
2022/10/21 02:43:40;;;;;;;14.25;5.70;;;14.20;99.90;;;;;;5009562;28;20045;-67
2022/10/21 02:46:12;;;;;;;12.30;5.88;;;14.20;99.90;;;;;;5025982;28;20034;-67
2022/10/21 02:48:43;;;;;;;16.58;6.18;;;14.20;99.90;;;;;;5025976;28;20029;-67
2022/10/21 02:51:09;;;;;;;19.48;5.68;;;14.20;99.90;;;;;;5025915;28;20561;-67
2022/10/21 02:53:36;;;;;;;11.73;6.15;;;14.20;99.90;;;;;;5025975;28;20042;-66
2022/10/21 02:56:02;;;;;;;14.70;5.80;;;14.20;99.90;;;;;;5029742;28;20038;-67
2022/10/21 02:58:28;;;;;;;15.45;5.53;;;14.10;99.90;;;;;;5014815;28;20088;-66
2022/10/21 03:00:54;;;;;;;11.32;6.05;;;14.20;99.90;;;;;;5014882;28;20486;-67
2022/10/21 03:03:20;;;;;;;14.73;5.70;;;14.20;99.90;;;;;;5014365;28;20052;-67
2022/10/21 03:05:46;;;;;;;9.80;5.30;;;14.20;99.90;;;;;;5014825;28;20117;-67
2022/10/21 03:08:11;;;;;;;17.75;5.93;;;14.20;99.90;;;;;;5014833;28;20041;-67
2022/10/21 03:10:37;;;;;;;17.92;5.90;;;14.20;99.90;;;;;;5014682;28;20577;-66
2022/10/21 03:13:03;;;;;;;8.43;5.00;;;14.20;99.90;;;;;;5014420;28;20052;-67
2022/10/21 03:15:29;;;;;;;24.02;7.53;;;14.20;99.90;;;;;;5014515;28;20088;-67
2022/10/21 03:17:57;;;;;;;23.58;8.52;;;14.20;99.90;;;;;;5014568;28;20034;-67
2022/10/21 03:20:23;;;;;;;15.27;6.05;;;14.20;99.90;;;;;;5014345;28;20026;-67
2022/10/21 03:22:48;;;;;;;16.60;5.35;;;14.20;99.90;;;;;;5014167;28;20362;-67
2022/10/21 03:25:14;;;;;;;17.58;5.97;;;14.30;99.90;;;;;;5014386;28;20363;-67
2022/10/21 03:27:40;;;;;;;11.18;5.32;;;14.20;99.90;;;;;;5013149;28;20030;-67
2022/10/21 03:30:08;;;;;;;13.00;5.30;;;14.30;99.90;;;;;;5014307;28;20032;-67
2022/10/21 03:32:34;;;;;;;13.45;4.65;;;14.20;99.90;;;;;;5012645;28;20719;-67
2022/10/21 03:34:59;;;;;;;11.40;6.00;;;14.30;99.90;;;;;;5009339;28;20101;-67
2022/10/21 03:37:25;;;;;;;11.73;5.63;;;14.30;99.90;;;;;;4992396;28;20051;-67
2022/10/21 03:39:51;;;;;;;11.00;4.97;;;14.30;99.90;;;;;;5015063;28;20405;-68
2022/10/21 03:42:16;;;;;;;14.68;5.90;;;14.30;99.90;;;;;;5014008;28;20061;-68
2022/10/21 03:44:42;;;;;;;16.27;4.82;;;14.30;99.90;;;;;;5014145;28;20026;-68
2022/10/21 03:47:08;;;;;;;17.95;5.82;;;14.30;99.90;;;;;;5014012;28;20033;-68
2022/10/21 03:49:34;;;;;;;13.35;5.55;;;14.40;99.90;;;;;;5034512;28;20028;-68
2022/10/21 03:52:00;;;;;;;12.05;5.68;;;14.30;99.90;;;;;;5031062;28;20021;-69
2022/10/21 03:54:26;;;;;;;15.95;5.20;;;14.30;99.90;;;;;;5020944;28;20022;-68
2022/10/21 03:56:51;;;;;;;10.73;5.53;;;14.30;99.90;;;;;;5013648;28;20045;-68
2022/10/21 03:59:17;;;;;;;14.57;6.10;;;14.30;99.90;;;;;;5012066;28;20038;-68
2022/10/21 04:01:43;;;;;;;11.48;4.57;;;14.40;99.90;;;;;;5013525;28;20052;-68
2022/10/21 04:04:09;;;;;;;8.75;4.65;;;14.30;99.90;;;;;;5013253;28;20038;-68
2022/10/21 04:06:34;;;;;;;8.45;4.78;;;14.30;99.90;;;;;;4995721;28;20049;-68
2022/10/21 04:09:00;;;;;;;13.00;5.38;;;14.30;99.90;;;;;;5013331;28;20026;-67
2022/10/21 04:11:26;;;;;;;14.07;5.47;;;14.30;99.90;;;;;;5013329;28;20744;-68
2022/10/21 04:13:52;;;;;;;14.32;5.40;;;14.20;99.90;;;;;;5011593;28;20105;-68
2022/10/21 04:16:20;;;;;;;11.68;4.82;;;14.20;99.90;;;;;;5013459;28;20044;-68
2022/10/21 04:18:46;;;;;;;12.90;5.32;;;14.10;99.90;;;;;;5023678;28;20120;-68
2022/10/21 04:21:12;;;;;;;10.85;4.78;;;14.10;99.90;;;;;;5013410;28;20112;-68
2022/10/21 04:23:38;;;;;;;15.00;6.20;;;14.10;99.90;;;;;;5012768;28;20042;-68
2022/10/21 04:26:05;;;;;;;13.38;4.75;;;14.00;99.90;;;;;;5013107;28;20034;-69
2022/10/21 04:28:31;;;;;;;14.02;5.10;;;14.00;99.90;;;;;;5011412;28;20041;-69
2022/10/21 04:30:56;;;;;;;10.43;4.47;;;14.00;99.90;;;;;;5024048;28;20029;-69
2022/10/21 04:33:22;;;;;;;14.43;6.10;;;14.00;99.90;;;;;;5032341;28;20481;-68
2022/10/21 04:35:48;;;;;;;12.85;6.05;;;14.00;99.90;;;;;;5031327;28;20025;-66
2022/10/21 04:38:14;;;;;;;11.85;5.88;;;14.00;99.90;;;;;;5031532;28;20436;-67
2022/10/21 04:40:39;;;;;;;10.82;5.75;;;14.00;99.90;;;;;;5032296;28;20030;-69
2022/10/21 04:43:05;;;;;;;22.83;12.48;;;14.00;99.90;;;;;;5032579;28;20056;-69
2022/10/21 04:45:31;;;;;;;19.70;9.18;;;14.10;99.90;;;;;;5032415;28;20047;-70
2022/10/21 04:47:57;;;;;;;13.85;5.53;;;14.10;99.90;;;;;;5023773;28;20397;-69
2022/10/21 04:50:23;;;;;;;14.18;6.55;;;14.10;99.90;;;;;;5011494;28;20037;-69
2022/10/21 04:52:48;;;;;;;14.38;5.70;;;14.20;99.90;;;;;;5027402;28;20032;-69
2022/10/21 04:55:14;;;;;;;12.98;5.70;;;14.20;99.90;;;;;;5012705;28;20037;-70
2022/10/21 04:57:40;;;;;;;17.27;6.32;;;14.10;99.90;;;;;;5027968;28;20081;-69
2022/10/21 05:00:07;;;;;;;12.95;5.38;;;14.10;99.90;;;;;;5012144;28;20038;-70
2022/10/21 05:02:33;;;;;;;12.00;5.05;;;14.10;99.90;;;;;;5010705;28;20391;-70
2022/10/21 05:04:59;;;;;;;16.42;5.22;;;14.10;99.90;;;;;;5012476;28;20105;-70
2022/10/21 05:07:24;;;;;;;12.18;5.88;;;14.10;99.90;;;;;;5012277;28;20034;-70
2022/10/21 05:09:50;;;;;;;11.63;5.80;;;14.10;99.90;;;;;;5012302;28;20041;-70
2022/10/21 05:12:16;;;;;;;24.27;5.78;;;14.10;99.90;;;;;;5011770;28;20747;-70
2022/10/21 05:14:41;;;;;;;17.67;7.15;;;14.10;99.90;;;;;;5012019;28;20029;-70
2022/10/21 05:17:07;;;;;;;11.02;5.85;;;14.10;99.90;;;;;;5010319;28;20490;-70
2022/10/21 05:19:32;;;;;;;8.82;4.82;;;14.00;99.90;;;;;;5010747;28;20087;-71
2022/10/21 05:21:58;;;;;;;9.95;5.28;;;14.10;99.90;;;;;;5011908;28;20053;-69
2022/10/21 05:24:24;;;;;;;17.42;5.50;;;14.10;99.90;;;;;;5009213;28;20049;-68
2022/10/21 05:26:51;;;;;;;11.90;4.55;;;14.20;99.90;;;;;;5015422;28;20049;-76
2022/10/21 05:29:17;;;;;;;15.52;6.85;;;14.10;99.90;;;;;;5031459;28;20025;-69
2022/10/21 05:31:43;;;;;;;9.30;5.18;;;14.10;99.90;;;;;;5031171;28;20025;-69
2022/10/21 05:34:08;;;;;;;9.95;4.80;;;14.20;99.90;;;;;;5029858;28;20061;-68
2022/10/21 05:36:34;;;;;;;13.25;5.25;;;14.20;99.90;;;;;;5031127;28;20136;-69
2022/10/21 05:39:00;;;;;;;7.93;5.13;;;14.20;99.90;;;;;;5030003;28;20040;-68
2022/10/21 05:41:26;;;;;;;7.82;4.68;;;14.20;99.90;;;;;;5031123;28;20045;-68
2022/10/21 05:43:51;;;;;;;14.90;5.90;;;14.20;99.90;;;;;;5029587;28;20030;-68
2022/10/21 05:46:17;;;;;;;11.70;5.25;;;14.30;99.90;;;;;;5015331;28;20037;-68
2022/10/21 05:48:43;;;;;;;9.98;5.22;;;14.30;99.90;;;;;;5011685;28;20080;-69
2022/10/21 05:51:09;;;;;;;11.02;5.78;;;14.30;99.90;;;;;;5013206;28;20102;-68
2022/10/21 05:53:34;;;;;;;9.73;5.05;;;14.30;99.90;;;;;;5009665;28;20041;-69
2022/10/21 05:56:06;;;;;;;20.50;5.93;;;14.40;99.90;;;;;;5010093;28;20034;-69
2022/10/21 05:58:33;;;;;;;15.35;4.95;;;14.40;99.90;;;;;;5012156;28;20055;-68
2022/10/21 06:01:00;;;;;;;20.38;6.13;;;14.30;99.90;;;;;;5028596;28;20026;-68
2022/10/21 06:03:29;;;;;;;21.63;5.63;;;14.40;99.90;;;;;;5032154;28;20036;-68
2022/10/21 06:05:57;;;;;;;19.90;6.40;;;14.40;99.90;;;;;;5030703;28;20021;-67
2022/10/21 06:08:23;;;;;;;13.63;6.07;;;14.30;99.90;;;;;;5031008;28;20051;-68
2022/10/21 06:10:49;;;;;;;10.73;5.65;;;14.30;99.90;;;;;;5046192;28;20496;-68
2022/10/21 06:13:14;;;;;;;10.23;4.60;;;14.30;99.90;;;;;;5045830;28;20029;-68
2022/10/21 06:15:40;;;;;;;8.13;4.93;;;14.30;99.90;;;;;;5030329;28;20036;-67
2022/10/21 06:18:06;;;;;;;11.82;5.50;;;14.30;99.90;;;;;;5030805;28;20489;-68
2022/10/21 06:20:31;;;;;;;14.43;4.68;;;14.30;99.90;;;;;;5030899;28;20071;-70
2022/10/21 06:23:00;;;;;;;7.75;4.80;;;14.40;99.90;;;;;;5030321;28;20025;-69
2022/10/21 06:25:26;;;;;;;12.77;5.05;;;14.40;99.90;;;;;;5029453;28;20037;-68
2022/10/21 06:27:52;;;;;;;12.75;5.65;;;14.60;99.90;;;;;;5028919;28;20388;-69
2022/10/21 06:30:18;;;;;;;13.05;4.75;;;14.50;99.90;;;;;;5030537;28;20025;-69
2022/10/21 06:32:44;;;;;;;9.60;4.95;;;14.70;99.90;;;;;;5028707;28;20033;-70
2022/10/21 06:35:09;;;;;;;15.07;6.28;;;14.70;99.90;;;;;;5030761;28;20029;-71
2022/10/21 06:37:35;;;;;;;15.60;5.43;;;14.80;99.90;;;;;;5030508;28;20769;-70
2022/10/21 06:40:03;;;;;;;11.85;5.97;;;14.80;99.90;;;;;;5030336;28;20135;-70
2022/10/21 06:42:29;;;;;;;8.88;4.95;;;14.80;99.90;;;;;;5028885;28;20039;-70
2022/10/21 06:44:55;;;;;;;9.30;4.22;;;14.90;99.90;;;;;;5030199;28;20026;-70
2022/10/21 06:47:21;;;;;;;12.82;4.82;;;14.90;99.90;;;;;;5030161;28;20044;-68
2022/10/21 06:49:46;;;;;;;7.13;3.35;;;14.80;99.90;;;;;;5029238;28;20424;-68
2022/10/21 06:52:12;;;;;;;9.57;5.18;;;14.90;99.90;;;;;;5030361;28;20048;-70
2022/10/21 06:54:37;;;;;;;5.82;3.47;;;14.90;99.90;;;;;;5030406;28;20039;-70
2022/10/21 06:57:03;;;;;;;19.17;4.47;;;14.90;99.90;;;;;;5030271;28;20400;-70
2022/10/21 06:59:29;;;;;;;11.88;4.72;;;14.90;99.90;;;;;;5030147;28;20406;-70
2022/10/21 07:01:55;;;;;;;10.82;3.63;;;14.90;99.90;;;;;;5030023;28;20477;-70
2022/10/21 07:04:21;;;;;;;13.48;4.60;;;14.90;99.90;;;;;;5030165;28;20048;-70
2022/10/21 07:06:47;;;;;;;8.23;3.72;;;14.90;99.90;;;;;;5028932;28;20444;-69
2022/10/21 07:09:13;;;;;;;10.82;3.47;;;15.00;99.90;;;;;;5028965;28;20036;-69
2022/10/21 07:11:39;;;;;;;13.68;3.90;;;15.00;99.90;;;;;;5029116;28;20034;-70
2022/10/21 07:14:05;;;;;;;29.98;4.43;;;15.00;99.90;;;;;;5029902;28;20029;-70
2022/10/21 07:16:35;;;;;;;8.18;3.90;;;15.10;99.90;;;;;;5029516;28;20065;-70
2022/10/21 07:19:02;;;;;;;9.02;3.78;;;15.10;99.90;;;;;;5028819;28;20064;-70
2022/10/21 07:21:30;;;;;;;13.27;3.67;;;15.10;99.90;;;;;;5030373;28;20030;-70
2022/10/21 07:23:58;;;;;;;4.97;3.03;;;15.10;99.90;;;;;;5028456;28;20029;-68
2022/10/21 07:26:26;;;;;;;6.57;3.63;;;15.10;99.90;;;;;;5030050;28;20113;-70
2022/10/21 07:28:53;;;;;;;9.75;4.05;;;15.10;99.90;;;;;;5030006;28;20036;-68
2022/10/21 07:31:20;;;;;;;7.03;3.63;;;15.00;99.90;;;;;;5030141;28;20032;-68
2022/10/21 07:33:47;;;;;;;6.60;3.88;;;15.00;99.90;;;;;;5028558;28;20030;-68
2022/10/21 07:36:17;;;;;;;15.25;3.47;;;15.00;99.90;;;;;;5029071;28;20029;-69
2022/10/21 07:38:45;;;;;;;32.00;4.30;;;15.10;99.90;;;;;;5028988;28;20037;-68
2022/10/21 07:41:43;;;;;;;27.95;4.80;;;15.00;99.90;;;;;;5031982;28;20051;-68
2022/10/21 07:44:09;;;;;;;10.95;4.25;;;15.00;99.90;;;;;;5031707;28;20057;-68
2022/10/21 07:46:38;;;;;;;8.13;3.47;;;15.00;99.90;;;;;;5033017;28;20041;-68
2022/10/21 07:49:04;;;;;;;10.88;4.22;;;15.00;99.90;;;;;;5032150;28;20033;-68
2022/10/21 07:51:30;;;;;;;9.98;4.25;;;15.10;99.90;;;;;;5033281;28;20500;-68
2022/10/21 07:53:58;;;;;;;13.63;3.75;;;15.10;99.90;;;;;;5031489;28;20064;-68
2022/10/21 07:56:32;;;;;;;12.63;5.28;;;15.10;99.90;;;;;;5029934;28;20030;-68
2022/10/21 07:58:58;;;;;;;8.20;4.13;;;15.10;99.90;;;;;;5024459;28;20030;-68
2022/10/21 08:01:24;;;;;;;7.35;3.95;;;15.10;99.90;;;;;;5012171;28;20028;-69
2022/10/21 08:03:52;;;;;;;12.93;4.68;;;15.10;99.90;;;;;;5011671;28;20034;-68
2022/10/21 08:06:18;;;;;;;15.60;5.03;;;15.20;99.90;;;;;;5011903;28;20030;-68
2022/10/21 08:08:45;;;;;;;6.07;3.25;;;15.20;99.90;;;;;;5012015;28;20037;-68
2022/10/21 08:11:18;;;;;;;15.57;4.47;;;15.20;99.90;;;;;;5012830;28;20038;-68
2022/10/21 08:13:44;;;;;;;11.52;3.83;;;15.20;99.90;;;;;;5013214;28;20107;-68
2022/10/21 08:16:10;;;;;;;6.40;3.25;;;15.10;99.90;;;;;;5013189;28;20599;-68
2022/10/21 08:18:35;;;;;;;14.48;3.47;;;15.20;99.90;;;;;;5025485;28;20485;-68
2022/10/21 08:21:03;;;;;;;13.50;3.67;;;15.20;99.90;;;;;;5031522;28;20394;-68
2022/10/21 08:23:29;;;;;;;10.98;4.97;;;15.20;99.90;;;;;;5023016;28;20133;-69
2022/10/21 08:25:59;;;;;;;9.90;4.15;;;15.20;99.90;;;;;;5013708;28;20033;-68
2022/10/21 08:28:27;;;;;;;18.05;4.47;;;15.20;99.90;;;;;;5034007;28;20024;-68
2022/10/21 08:31:09;;;;;;;10.27;4.00;;;15.30;99.90;;;;;;5032385;28;20385;-68
2022/10/21 08:33:34;;;;;;;;;;;15.30;99.90;;;;;;5027943;28;20041;-68
2022/10/21 08:36:12;;;;;;;11.48;3.50;;;15.20;99.90;;;;;;5010043;28;19913;-69
2022/10/21 08:38:38;;;;;;;7.95;4.53;;;15.30;99.90;;;;;;5011122;28;20034;-68
2022/10/21 08:41:28;;;;;;;8.48;3.85;;;15.30;99.90;;;;;;4994611;28;20025;-69
2022/10/21 08:44:05;;;;;;;11.82;4.82;;;15.30;99.90;;;;;;5010933;28;20056;-69
2022/10/21 08:47:24;;;;;;;11.00;3.60;;;15.30;99.90;;;;;;5012282;28;20041;-69
2022/10/21 08:50:33;;;;;;;11.48;3.83;;;15.30;99.90;;;;;;5012249;28;20037;-69
2022/10/21 08:53:09;;;;;;;17.20;4.07;;;15.30;99.90;;;;;;4950235;28;20121;-69
2022/10/21 08:55:40;;;;;;;9.68;3.55;;;15.30;99.90;;;;;;4936204;29;20178;-69
2022/10/21 08:58:15;;;;;;;9.65;3.88;;;15.30;99.90;;;;;;4935297;29;20147;-69
2022/10/21 09:01:02;;;;;;;5.88;3.45;;;15.40;99.90;;;;;;4935997;29;20039;-70
2022/10/21 09:03:57;;;;;;;12.27;3.20;;;15.40;99.90;;;;;;4935885;29;20043;-69
2022/10/21 09:07:07;;;;;;;10.73;4.05;;;15.30;99.90;;;;;;4950779;29;20078;-69
2022/10/21 09:09:58;;;;;;;8.63;3.85;;;15.40;99.90;;;;;;4947950;29;20037;-68
2022/10/21 09:12:57;;;;;;;9.23;3.53;;;15.40;99.90;;;;;;4932864;29;20031;-69
2022/10/21 09:15:45;;;;;;;7.53;4.13;;;15.40;99.90;;;;;;4935144;29;20035;-69
2022/10/21 09:18:31;;;;;;;10.75;3.42;;;15.40;99.90;;;;;;4953842;28;20046;-69
2022/10/21 09:21:50;;;;;;;7.10;3.90;;;15.40;99.90;;;;;;4952147;28;20143;-69
2022/10/21 09:24:47;;;;;;;9.98;3.40;;;15.40;99.90;;;;;;4992880;28;20065;-69
2022/10/21 09:27:12;;;;;;;7.63;3.72;;;15.40;99.90;;;;;;4995582;28;20450;-69
2022/10/21 09:29:52;;;;;;;9.95;3.95;;;15.40;99.90;;;;;;5010479;28;20070;-68
2022/10/21 09:32:22;;;;;;;5.82;3.30;;;15.40;99.90;;;;;;5009880;28;20034;-68
2022/10/21 09:35:14;;;;;;;18.05;5.10;;;15.40;99.90;;;;;;5011524;28;20112;-69
2022/10/21 09:37:46;;;;;;;18.05;4.18;;;15.40;99.90;;;;;;5010368;28;20034;-69
2022/10/21 09:40:18;;;;;;;7.90;3.67;;;15.40;99.90;;;;;;5011752;28;20061;-69
2022/10/21 09:42:47;;;;;;;11.30;5.20;;;15.40;99.90;;;;;;5011403;28;20069;-69
2022/10/21 09:45:33;;;;;;;10.63;4.25;;;15.40;99.90;;;;;;5011394;28;20444;-69
2022/10/21 09:48:20;;;;;;;7.10;3.45;;;15.40;99.90;;;;;;5011230;28;20033;-68
2022/10/21 09:50:59;;;;;;;9.30;3.70;;;15.40;99.90;;;;;;5012464;28;20029;-69
2022/10/21 09:53:37;;;;;;;9.45;3.13;;;15.40;99.90;;;;;;4993567;28;20037;-68
2022/10/21 09:56:15;;;;;;;8.05;3.25;;;15.40;99.90;;;;;;5010029;28;20049;-69
2022/10/21 09:59:11;;;;;;;7.18;3.50;;;15.40;99.90;;;;;;5010226;28;20448;-69
2022/10/21 10:01:40;;;;;;;11.82;4.07;;;15.40;99.90;;;;;;5011050;28;20144;-69
2022/10/21 10:04:31;;;;;;;11.52;3.15;;;15.40;99.90;;;;;;5009291;28;20093;-69
2022/10/21 10:07:18;;;;;;;8.07;3.03;;;15.40;99.90;;;;;;5000486;28;20068;-68
2022/10/21 10:09:46;;;;;;;5.90;3.00;;;15.40;99.90;;;;;;5010728;28;20092;-68
2022/10/21 10:12:23;;;;;;;10.30;3.78;;;15.40;99.90;;;;;;5009353;28;20057;-69
2022/10/21 10:14:50;;;;;;;10.77;3.22;;;15.50;99.90;;;;;;5009837;28;20073;-70
2022/10/21 10:17:36;;;;;;;13.02;3.95;;;15.50;99.90;;;;;;5009702;28;20041;-70
2022/10/21 10:20:04;;;;;;;7.22;2.72;;;15.50;99.90;;;;;;5010794;28;20038;-70
2022/10/21 10:22:57;;;;;;;7.18;3.53;;;15.50;99.90;;;;;;5011035;28;20116;-70
2022/10/21 10:25:28;;;;;;;11.13;2.92;;;15.50;99.90;;;;;;5010557;28;20030;-69
2022/10/21 10:27:58;;;;;;;5.93;3.05;;;15.60;99.90;;;;;;5022193;28;20552;-70
2022/10/21 10:30:41;;;;;;;9.48;2.75;;;15.60;99.90;;;;;;5011362;28;20416;-70
2022/10/21 10:33:18;;;;;;;4.55;2.78;;;15.60;99.90;;;;;;5009436;28;20088;-69
2022/10/21 10:35:56;;;;;;;7.95;2.42;;;15.60;99.90;;;;;;5009622;28;20552;-67
2022/10/21 10:38:44;;;;;;;1.77;1.23;;;15.60;99.90;;;;;;5009494;28;20069;-68
2022/10/21 10:41:16;;;;;;;4.45;1.60;;;15.60;99.90;;;;;;5009546;28;20134;-68
2022/10/21 10:43:50;;;;;;;2.20;1.27;;;15.70;99.90;;;;;;5009805;28;20042;-68
2022/10/21 10:46:36;;;;;;;5.10;1.70;;;15.70;99.90;;;;;;5009421;28;20493;-68
2022/10/21 10:49:11;;;;;;;5.57;1.02;;;15.70;99.90;;;;;;5025678;28;20038;-67
2022/10/21 10:51:39;;;;;;;3.92;1.20;;;15.80;99.90;;;;;;5010848;28;20126;-68
2022/10/21 10:54:27;;;;;;;2.78;1.00;;;15.80;99.90;;;;;;5008969;28;20030;-69
2022/10/21 10:57:02;;;;;;;5.88;1.33;;;15.90;99.90;;;;;;5009564;28;20060;-69
2022/10/21 10:59:36;;;;;;;1.95;1.02;;;15.90;99.90;;;;;;5009293;28;20489;-69
2022/10/21 11:02:08;;;;;;;6.00;1.35;;;16.00;99.90;;;;;;5010600;28;20034;-68
2022/10/21 11:04:56;;;;;;;2.35;1.00;;;16.10;99.90;;;;;;5010305;28;20131;-69
2022/10/21 11:07:49;;;;;;;2.55;0.95;;;16.10;99.90;;;;;;5009490;28;20119;-69
2022/10/21 11:10:40;;;;;;;3.42;1.35;;;16.10;99.90;;;;;;4994964;28;20034;-70
2022/10/21 11:13:17;;;;;;;3.42;0.50;;;16.30;99.90;;;;;;5010154;28;20428;-69
2022/10/21 11:16:13;;;;;;;7.47;1.05;;;16.30;99.90;;;;;;5010817;28;20392;-69
2022/10/21 11:19:01;;;;;;;2.65;1.33;;;16.30;99.90;;;;;;5014405;28;20490;-69
2022/10/21 11:21:42;;;;;;;9.15;1.75;;;16.50;99.90;;;;;;5012835;28;20038;-69
2022/10/21 11:24:36;;;;;;;10.02;1.67;;;16.50;99.90;;;;;;5014035;28;20041;-70
2022/10/21 11:27:36;;;;;;;8.68;1.80;;;16.70;99.90;;;;;;5012554;28;20041;-69
2022/10/21 11:30:16;;;;;;;7.07;1.20;;;16.90;99.90;;;;;;5013103;28;20408;-68
2022/10/21 11:33:10;;;;;;;1.40;0.73;;;17.10;99.90;;;;;;5012323;28;20095;-67
2022/10/21 11:36:02;;;;;;;3.10;1.08;;;17.40;99.90;;;;;;5014099;28;20493;-68
2022/10/21 11:39:16;;;;;;;1.75;0.85;;;17.50;99.90;;;;;;5012766;28;20058;-69
2022/10/21 11:42:05;;;;;;;3.08;0.88;;;17.30;99.90;;;;;;5012517;28;20095;-69
2022/10/21 11:45:01;;;;;;;2.22;1.25;;;17.40;99.90;;;;;;4999903;28;20030;-68
2022/10/21 11:47:38;;;;;;;1.23;0.60;;;17.60;99.90;;;;;;5013444;28;20033;-69
2022/10/21 11:50:42;;;;;;;3.47;1.30;;;18.10;99.90;;;;;;5012480;28;20026;-67
2022/10/21 11:53:29;;;;;;;1.88;0.80;;;17.90;99.90;;;;;;4950168;28;20474;-68
2022/10/21 11:56:13;;;;;;;2.70;0.80;;;17.80;99.90;;;;;;5013387;28;20478;-69
2022/10/21 11:58:59;;;;;;;5.22;0.55;;;17.50;99.90;;;;;;5012487;28;20506;-69
2022/10/21 12:01:46;;;;;;;4.43;1.73;;;17.50;99.90;;;;;;5012357;28;20025;-69
2022/10/21 12:05:03;;;;;;;0.52;0.40;;;17.60;99.90;;;;;;5012370;28;20046;-68
2022/10/21 12:07:50;;;;;;;2.22;1.02;;;17.70;99.90;;;;;;5011848;28;20044;-68
2022/10/21 12:10:58;;;;;;;1.30;0.73;;;17.60;99.90;;;;;;5013394;28;20079;-69
2022/10/21 12:13:42;;;;;;;3.85;0.75;;;17.70;99.90;;;;;;5011663;28;20034;-67
2022/10/21 12:16:13;;;;;;;2.95;0.90;;;17.70;99.90;;;;;;5013241;28;20103;-69
2022/10/21 12:18:49;;;;;;;1.02;0.50;;;18.10;99.90;;;;;;5011599;28;20041;-69
2022/10/21 12:21:31;;;;;;;1.40;0.75;;;19.00;99.90;;;;;;5011761;28;20398;-69
2022/10/21 12:24:05;;;;;;;1.65;0.80;;;19.50;99.90;;;;;;5011429;28;20057;-69
2022/10/21 12:27:15;;;;;;;3.65;0.82;;;20.20;99.90;;;;;;5013174;28;20409;-68
2022/10/21 12:30:11;;;;;;;1.48;0.75;;;20.20;99.90;;;;;;5012821;28;20549;-69
2022/10/21 12:32:55;;;;;;;1.88;0.82;;;19.30;99.90;;;;;;5011312;28;20038;-69
2022/10/21 12:35:44;;;;;;;1.42;0.57;;;20.00;99.90;;;;;;5012936;28;20044;-70
2022/10/21 12:38:22;;;;;;;2.35;0.40;;;20.30;99.90;;;;;;5011803;28;20026;-70
2022/10/21 12:41:10;;;;;;;1.20;0.70;;;19.90;99.90;;;;;;5012546;28;20040;-69
2022/10/21 12:43:38;;;;;;;0.50;0.40;;;20.40;99.90;;;;;;5011349;28;20026;-69
2022/10/21 12:46:09;;;;;;;3.53;0.68;;;20.60;99.90;;;;;;5011202;28;20088;-69
2022/10/21 12:48:41;;;;;;;1.35;0.60;;;20.40;99.90;;;;;;5012615;28;20026;-69
2022/10/21 12:51:25;;;;;;;1.00;0.63;;;21.00;99.90;;;;;;5011505;28;20068;-69
2022/10/21 12:54:15;;;;;;;3.90;0.60;;;21.00;99.90;;;;;;5010958;28;20544;-69
2022/10/21 12:56:56;;;;;;;1.92;0.55;;;20.30;99.90;;;;;;5011498;28;20041;-69
2022/10/21 12:59:39;;;;;;;2.25;0.80;;;19.70;99.90;;;;;;5011190;28;20057;-69
2022/10/21 13:02:05;;;;;;;2.88;0.50;;;19.60;99.90;;;;;;5011255;28;20038;-69
2022/10/21 13:04:30;;;;;;;4.13;0.63;;;19.90;99.90;;;;;;5011718;28;20044;-69
2022/10/21 13:07:12;;;;;;;0.52;0.40;;;19.60;99.90;;;;;;5012146;28;20033;-69
2022/10/21 13:09:49;;;;;;;3.90;1.40;;;19.70;99.90;;;;;;5012097;28;20556;-70
2022/10/21 13:12:24;;;;;;;3.40;0.90;;;20.00;99.90;;;;;;5012030;28;20040;-71
2022/10/21 13:15:20;;;;;;;8.95;0.90;;;19.60;99.90;;;;;;5012075;28;20025;-70
2022/10/21 13:17:53;;;;;;;3.92;0.63;;;20.20;99.90;;;;;;5011034;28;20033;-68